sensor_id;sensor_type;location;lat;lon;timestamp;pressure;altitude;pressure_sealevel;temperature;humidity
74637;BME280;63141;54.616;39.754;2023-04-03T00:02:42;99981.41;;;24.03;37.14
74637;BME280;63141;54.616;39.754;2023-04-03T00:05:52;99983.22;;;24.03;37.07
74637;BME280;63141;54.616;39.754;2023-04-03T00:08:53;99977.00;;;24.02;37.31
74637;BME280;63141;54.616;39.754;2023-04-03T00:12:06;99979.66;;;24.02;37.18
74637;BME280;63141;54.616;39.754;2023-04-03T00:15:08;99985.09;;;24.01;37.20
74637;BME280;63141;54.616;39.754;2023-04-03T00:18:10;99980.63;;;24.01;37.34
74637;BME280;63141;54.616;39.754;2023-04-03T00:21:17;99976.16;;;24.02;37.28
74637;BME280;63141;54.616;39.754;2023-04-03T00:24:19;99977.09;;;24.01;37.35
74637;BME280;63141;54.616;39.754;2023-04-03T00:27:26;99975.38;;;24.00;37.21
74637;BME280;63141;54.616;39.754;2023-04-03T00:30:33;99982.44;;;24.01;37.16
74637;BME280;63141;54.616;39.754;2023-04-03T00:33:38;99975.38;;;24.00;37.49
74637;BME280;63141;54.616;39.754;2023-04-03T00:36:45;99976.22;;;24.00;37.30
74637;BME280;63141;54.616;39.754;2023-04-03T00:39:52;99985.09;;;24.01;37.43
74637;BME280;63141;54.616;39.754;2023-04-03T00:43:09;99972.72;;;24.00;37.24
74637;BME280;63141;54.616;39.754;2023-04-03T00:46:14;99984.31;;;23.99;37.37
74637;BME280;63141;54.616;39.754;2023-04-03T00:49:19;99978.97;;;23.99;37.24
74637;BME280;63141;54.616;39.754;2023-04-03T00:52:29;99974.50;;;23.99;37.43
74637;BME280;63141;54.616;39.754;2023-04-03T00:55:35;99978.13;;;23.98;37.33
74637;BME280;63141;54.616;39.754;2023-04-03T00:58:51;99986.00;;;24.00;37.56
74637;BME280;63141;54.616;39.754;2023-04-03T01:01:56;99978.13;;;23.98;37.63
74637;BME280;63141;54.616;39.754;2023-04-03T01:05:03;99975.47;;;23.98;37.40
74637;BME280;63141;54.616;39.754;2023-04-03T01:08:08;99982.56;;;23.98;37.39
74637;BME280;63141;54.616;39.754;2023-04-03T01:11:09;99981.63;;;23.99;37.65
74637;BME280;63141;54.616;39.754;2023-04-03T01:14:11;99970.16;;;23.98;37.55
74637;BME280;63141;54.616;39.754;2023-04-03T01:24:35;99964.88;;;23.97;37.51
74637;BME280;63141;54.616;39.754;2023-04-03T01:27:42;99967.56;;;23.97;37.53
74637;BME280;63141;54.616;39.754;2023-04-03T01:34:15;99963.16;;;23.96;37.45
74637;BME280;63141;54.616;39.754;2023-04-03T01:37:19;99967.56;;;23.97;37.57
74637;BME280;63141;54.616;39.754;2023-04-03T01:40:26;99970.22;;;23.97;37.53
74637;BME280;63141;54.616;39.754;2023-04-03T01:43:31;99964.09;;;23.95;37.54
74637;BME280;63141;54.616;39.754;2023-04-03T01:46:38;99970.22;;;23.97;37.44
74637;BME280;63141;54.616;39.754;2023-04-03T01:49:45;99966.75;;;23.95;37.39
74637;BME280;63141;54.616;39.754;2023-04-03T01:52:47;99968.47;;;23.96;37.70
74637;BME280;63141;54.616;39.754;2023-04-03T01:55:48;99966.75;;;23.95;37.23
74637;BME280;63141;54.616;39.754;2023-04-03T01:58:49;99969.44;;;23.95;37.61
74637;BME280;63141;54.616;39.754;2023-04-03T02:01:57;99964.09;;;23.95;37.59
74637;BME280;63141;54.616;39.754;2023-04-03T02:04:58;99965.81;;;23.96;37.44
74637;BME280;63141;54.616;39.754;2023-04-03T02:08:02;99966.75;;;23.95;37.57
74637;BME280;63141;54.616;39.754;2023-04-03T02:11:04;99961.44;;;23.95;37.53
74637;BME280;63141;54.616;39.754;2023-04-03T02:14:05;99963.16;;;23.96;37.73
74637;BME280;63141;54.616;39.754;2023-04-03T02:17:07;99965.06;;;23.94;37.67
74637;BME280;63141;54.616;39.754;2023-04-03T02:20:10;99959.75;;;23.94;37.15
74637;BME280;63141;54.616;39.754;2023-04-03T02:23:11;99961.44;;;23.95;37.47
74637;BME280;63141;54.616;39.754;2023-04-03T02:26:18;99972.09;;;23.95;37.63
74637;BME280;63141;54.616;39.754;2023-04-03T02:29:20;99973.88;;;23.94;37.70
74637;BME280;63141;54.616;39.754;2023-04-03T02:32:25;99977.41;;;23.95;37.63
74637;BME280;63141;54.616;39.754;2023-04-03T02:35:29;99976.56;;;23.94;37.68
74637;BME280;63141;54.616;39.754;2023-04-03T02:38:32;99977.41;;;23.95;37.55
74637;BME280;63141;54.616;39.754;2023-04-03T02:41:34;99976.56;;;23.94;37.41
74637;BME280;63141;54.616;39.754;2023-04-03T02:44:48;99976.63;;;23.93;37.75
74637;BME280;63141;54.616;39.754;2023-04-03T02:47:52;99980.06;;;23.95;37.61
74637;BME280;63141;54.616;39.754;2023-04-03T02:50:54;99981.00;;;23.94;37.64
74637;BME280;63141;54.616;39.754;2023-04-03T02:53:55;99985.44;;;23.93;37.55
74637;BME280;63141;54.616;39.754;2023-04-03T02:57:06;99988.03;;;23.95;37.57
74637;BME280;63141;54.616;39.754;2023-04-03T03:00:14;99993.44;;;23.93;37.61
74637;BME280;63141;54.616;39.754;2023-04-03T03:03:18;99989.00;;;23.94;37.47
74637;BME280;63141;54.616;39.754;2023-04-03T03:06:22;99991.66;;;23.94;37.58
74637;BME280;63141;54.616;39.754;2023-04-03T03:09:26;99992.56;;;23.93;37.69
74637;BME280;63141;54.616;39.754;2023-04-03T03:12:27;99989.91;;;23.93;37.45
74637;BME280;63141;54.616;39.754;2023-04-03T03:15:30;99989.91;;;23.93;37.60
74637;BME280;63141;54.616;39.754;2023-04-03T03:18:32;99989.06;;;23.92;37.63
74637;BME280;63141;54.616;39.754;2023-04-03T03:21:36;99990.88;;;23.92;37.26
74637;BME280;63141;54.616;39.754;2023-04-03T03:24:38;99982.88;;;23.92;37.35
74637;BME280;63141;54.616;39.754;2023-04-03T03:27:39;99989.91;;;23.93;37.32
74637;BME280;63141;54.616;39.754;2023-04-03T03:30:47;99991.72;;;23.92;37.52
74637;BME280;63141;54.616;39.754;2023-04-03T03:33:55;99996.97;;;23.94;37.54
74637;BME280;63141;54.616;39.754;2023-04-03T03:37:03;99997.72;;;23.96;37.59
74637;BME280;63141;54.616;39.754;2023-04-03T03:40:05;99984.44;;;23.96;37.80
74637;BME280;63141;54.616;39.754;2023-04-03T03:43:07;99989.75;;;23.96;38.04
74637;BME280;63141;54.616;39.754;2023-04-03T03:46:08;99993.19;;;23.98;37.77
74637;BME280;63141;54.616;39.754;2023-04-03T03:49:09;99993.19;;;23.98;38.12
74637;BME280;63141;54.616;39.754;2023-04-03T03:52:15;99993.19;;;23.98;37.76
74637;BME280;63141;54.616;39.754;2023-04-03T03:55:16;99987.88;;;23.98;38.04
74637;BME280;63141;54.616;39.754;2023-04-03T03:58:34;99990.53;;;23.98;37.73
74637;BME280;63141;54.616;39.754;2023-04-03T04:01:37;99992.34;;;23.97;37.87
74637;BME280;63141;54.616;39.754;2023-04-03T04:04:44;99986.16;;;23.97;38.21
74637;BME280;63141;54.616;39.754;2023-04-03T04:07:51;99989.75;;;23.96;38.21
74637;BME280;63141;54.616;39.754;2023-04-03T04:10:59;99981.88;;;23.94;37.86
74637;BME280;63141;54.616;39.754;2023-04-03T04:14:01;99983.69;;;23.94;38.14
74637;BME280;63141;54.616;39.754;2023-04-03T04:17:06;99981.00;;;23.94;38.13
74637;BME280;63141;54.616;39.754;2023-04-03T04:20:14;99976.63;;;23.93;38.18
74637;BME280;63141;54.616;39.754;2023-04-03T04:23:17;99980.13;;;23.93;37.82
74637;BME280;63141;54.616;39.754;2023-04-03T04:26:25;99973.97;;;23.93;37.76
74637;BME280;63141;54.616;39.754;2023-04-03T04:29:32;99981.94;;;23.93;38.04
74637;BME280;63141;54.616;39.754;2023-04-03T04:32:40;99983.69;;;23.94;37.98
74637;BME280;63141;54.616;39.754;2023-04-03T04:35:42;99978.34;;;23.94;38.07
74637;BME280;63141;54.616;39.754;2023-04-03T04:38:48;99984.53;;;23.94;37.97
74637;BME280;63141;54.616;39.754;2023-04-03T04:41:56;99983.69;;;23.94;38.14
74637;BME280;63141;54.616;39.754;2023-04-03T04:45:03;99981.00;;;23.94;37.85
74637;BME280;63141;54.616;39.754;2023-04-03T04:48:10;99983.69;;;23.94;37.95
74637;BME280;63141;54.616;39.754;2023-04-03T04:51:12;99984.53;;;23.94;38.37
74637;BME280;63141;54.616;39.754;2023-04-03T04:54:14;99991.50;;;23.97;38.51
74637;BME280;63141;54.616;39.754;2023-04-03T04:57:16;99987.88;;;23.98;38.51
74637;BME280;63141;54.616;39.754;2023-04-03T05:00:36;99987.03;;;23.97;38.26
74637;BME280;63141;54.616;39.754;2023-04-03T05:03:38;99986.25;;;23.95;38.31
74637;BME280;63141;54.616;39.754;2023-04-03T05:06:51;99982.72;;;23.95;38.32
74637;BME280;63141;54.616;39.754;2023-04-03T05:10:02;99989.00;;;23.94;38.38
74637;BME280;63141;54.616;39.754;2023-04-03T05:13:05;99989.06;;;23.92;38.26
74637;BME280;63141;54.616;39.754;2023-04-03T05:16:09;99987.25;;;23.93;38.26
74637;BME280;63141;54.616;39.754;2023-04-03T05:19:17;99984.59;;;23.93;38.31
74637;BME280;63141;54.616;39.754;2023-04-03T05:22:24;99983.75;;;23.92;38.11
74637;BME280;63141;54.616;39.754;2023-04-03T05:25:29;99991.66;;;23.94;38.25
74637;BME280;63141;54.616;39.754;2023-04-03T05:28:36;99986.34;;;23.94;37.99
74637;BME280;63141;54.616;39.754;2023-04-03T05:31:41;99993.38;;;23.95;37.90
74637;BME280;63141;54.616;39.754;2023-04-03T05:34:44;99993.44;;;23.93;37.95
74637;BME280;63141;54.616;39.754;2023-04-03T05:37:56;99991.66;;;23.94;38.09
74637;BME280;63141;54.616;39.754;2023-04-03T05:41:04;99991.66;;;23.94;38.14
74637;BME280;63141;54.616;39.754;2023-04-03T05:44:08;99993.38;;;23.95;37.97
74637;BME280;63141;54.616;39.754;2023-04-03T05:47:17;99999.53;;;23.95;37.88
74637;BME280;63141;54.616;39.754;2023-04-03T05:50:22;99999.53;;;23.95;37.67
74637;BME280;63141;54.616;39.754;2023-04-03T05:53:37;99990.69;;;23.95;37.80
74637;BME280;63141;54.616;39.754;2023-04-03T05:56:39;99988.03;;;23.95;38.03
74637;BME280;63141;54.616;39.754;2023-04-03T05:59:52;99994.22;;;23.95;37.93
74637;BME280;63141;54.616;39.754;2023-04-03T06:02:58;99993.38;;;23.95;37.84
74637;BME280;63141;54.616;39.754;2023-04-03T06:06:08;99996.81;;;23.97;37.76
74637;BME280;63141;54.616;39.754;2023-04-03T06:09:19;99994.16;;;23.97;37.89
74637;BME280;63141;54.616;39.754;2023-04-03T06:12:26;99989.75;;;23.96;38.03
74637;BME280;63141;54.616;39.754;2023-04-03T06:15:44;99991.50;;;23.97;37.83
74637;BME280;63141;54.616;39.754;2023-04-03T06:19:04;99996.81;;;23.97;38.03
74637;BME280;63141;54.616;39.754;2023-04-03T06:22:16;99998.53;;;23.98;37.67
74637;BME280;63141;54.616;39.754;2023-04-03T06:25:20;99996.81;;;23.97;37.82
74637;BME280;63141;54.616;39.754;2023-04-03T06:28:25;99996.81;;;23.97;37.90
74637;BME280;63141;54.616;39.754;2023-04-03T06:31:35;99999.47;;;23.97;37.71
74637;BME280;63141;54.616;39.754;2023-04-03T06:34:43;100002.06;;;23.98;37.66
74637;BME280;63141;54.616;39.754;2023-04-03T06:37:50;100003.84;;;23.98;37.77
74637;BME280;63141;54.616;39.754;2023-04-03T06:41:00;100001.19;;;23.98;37.46
74637;BME280;63141;54.616;39.754;2023-04-03T06:44:05;100003.84;;;23.98;37.63
74637;BME280;63141;54.616;39.754;2023-04-03T06:47:16;100007.28;;;24.00;37.71
74637;BME280;63141;54.616;39.754;2023-04-03T06:50:23;100005.56;;;23.99;37.72
74637;BME280;63141;54.616;39.754;2023-04-03T06:53:47;100007.28;;;24.00;37.36
74637;BME280;63141;54.616;39.754;2023-04-03T06:56:57;100007.28;;;24.00;37.52
74637;BME280;63141;54.616;39.754;2023-04-03T07:00:05;100013.47;;;24.00;37.56
74637;BME280;63141;54.616;39.754;2023-04-03T07:03:14;100011.75;;;23.99;37.33
74637;BME280;63141;54.616;39.754;2023-04-03T07:06:23;100007.28;;;24.00;37.58
74637;BME280;63141;54.616;39.754;2023-04-03T07:09:46;99996.66;;;24.00;37.49
74637;BME280;63141;54.616;39.754;2023-04-03T07:13:09;100008.16;;;24.00;37.38
74637;BME280;63141;54.616;39.754;2023-04-03T07:16:16;100014.34;;;24.01;37.40
74637;BME280;63141;54.616;39.754;2023-04-03T07:19:31;100011.69;;;24.01;37.10
74637;BME280;63141;54.616;39.754;2023-04-03T07:22:35;100005.47;;;24.00;37.55
74637;BME280;63141;54.616;39.754;2023-04-03T07:25:47;100011.69;;;24.01;37.23
74637;BME280;63141;54.616;39.754;2023-04-03T07:29:00;100009.03;;;24.01;37.24
74637;BME280;63141;54.616;39.754;2023-04-03T07:32:02;100003.72;;;24.01;37.23
74637;BME280;63141;54.616;39.754;2023-04-03T07:35:03;100013.41;;;24.02;37.30
74637;BME280;63141;54.616;39.754;2023-04-03T07:38:14;100016.06;;;24.02;37.24
74637;BME280;63141;54.616;39.754;2023-04-03T07:41:28;100009.81;;;24.03;37.29
74637;BME280;63141;54.616;39.754;2023-04-03T07:44:37;100005.41;;;24.02;37.31
74637;BME280;63141;54.616;39.754;2023-04-03T07:47:53;100005.41;;;24.02;37.08
74637;BME280;63141;54.616;39.754;2023-04-03T07:51:04;100004.50;;;24.03;37.26
74637;BME280;63141;54.616;39.754;2023-04-03T07:54:21;100001.84;;;24.03;37.28
74637;BME280;63141;54.616;39.754;2023-04-03T07:57:23;100004.50;;;24.03;37.13
74637;BME280;63141;54.616;39.754;2023-04-03T08:00:29;100002.69;;;24.03;37.01
74637;BME280;63141;54.616;39.754;2023-04-03T08:03:34;100007.16;;;24.03;37.02
74637;BME280;63141;54.616;39.754;2023-04-03T08:06:59;100008.00;;;24.03;37.15
74637;BME280;63141;54.616;39.754;2023-04-03T08:10:15;100011.53;;;24.04;36.92
74637;BME280;63141;54.616;39.754;2023-04-03T08:13:35;100010.56;;;24.05;37.03
74637;BME280;63141;54.616;39.754;2023-04-03T08:16:49;100011.53;;;24.04;37.03
74637;BME280;63141;54.616;39.754;2023-04-03T08:19:59;100011.53;;;24.04;37.03
74637;BME280;63141;54.616;39.754;2023-04-03T08:23:06;100005.34;;;24.03;37.00
74637;BME280;63141;54.616;39.754;2023-04-03T08:26:25;100017.69;;;24.04;37.00
74637;BME280;63141;54.616;39.754;2023-04-03T08:29:51;100008.88;;;24.04;36.97
74637;BME280;63141;54.616;39.754;2023-04-03T08:33:02;100004.50;;;24.03;36.84
74637;BME280;63141;54.616;39.754;2023-04-03T08:36:20;100007.91;;;24.05;36.93
74637;BME280;63141;54.616;39.754;2023-04-03T08:39:30;100015.03;;;24.04;37.04
74637;BME280;63141;54.616;39.754;2023-04-03T08:43:04;100017.69;;;24.04;37.15
74637;BME280;63141;54.616;39.754;2023-04-03T08:50:07;100021.22;;;24.05;36.67
74637;BME280;63141;54.616;39.754;2023-04-03T08:53:20;100023.88;;;24.05;36.99
74637;BME280;63141;54.616;39.754;2023-04-03T08:56:30;100015.91;;;24.05;36.67
74637;BME280;63141;54.616;39.754;2023-04-03T08:59:53;100016.78;;;24.06;36.82
74637;BME280;63141;54.616;39.754;2023-04-03T09:03:00;100015.91;;;24.05;36.90
74637;BME280;63141;54.616;39.754;2023-04-03T09:06:27;100017.63;;;24.06;36.65
74637;BME280;63141;54.616;39.754;2023-04-03T09:09:43;100019.44;;;24.06;36.97
74637;BME280;63141;54.616;39.754;2023-04-03T09:12:59;100020.28;;;24.06;36.73
74637;BME280;63141;54.616;39.754;2023-04-03T09:23:30;100008.69;;;24.07;36.59
74637;BME280;63141;54.616;39.754;2023-04-03T09:26:56;100010.44;;;24.08;36.61
74637;BME280;63141;54.616;39.754;2023-04-03T09:30:19;99996.19;;;24.09;36.51
74637;BME280;63141;54.616;39.754;2023-04-03T09:33:25;99994.47;;;24.08;36.42
74637;BME280;63141;54.616;39.754;2023-04-03T09:36:52;99996.19;;;24.09;36.85
74637;BME280;63141;54.616;39.754;2023-04-03T09:39:56;100003.25;;;24.10;36.80
74637;BME280;63141;54.616;39.754;2023-04-03T09:43:24;99999.63;;;24.11;36.65
74637;BME280;63141;54.616;39.754;2023-04-03T09:46:33;100000.41;;;24.13;36.33
74637;BME280;63141;54.616;39.754;2023-04-03T09:49:50;100002.13;;;24.14;36.65
74637;BME280;63141;54.616;39.754;2023-04-03T09:53:02;100011.00;;;24.15;36.55
74637;BME280;63141;54.616;39.754;2023-04-03T09:59:21;99991.41;;;24.16;36.57
74637;BME280;63141;54.616;39.754;2023-04-03T10:02:44;99999.34;;;24.17;36.46
74637;BME280;63141;54.616;39.754;2023-04-03T10:05:55;99994.00;;;24.17;36.77
74637;BME280;63141;54.616;39.754;2023-04-03T10:09:29;99991.34;;;24.17;36.61
74637;BME280;63141;54.616;39.754;2023-04-03T10:12:33;99989.53;;;24.18;36.71
74637;BME280;63141;54.616;39.754;2023-04-03T10:15:46;99990.41;;;24.18;36.68
74637;BME280;63141;54.616;39.754;2023-04-03T10:25:39;99985.94;;;24.19;36.59
74637;BME280;63141;54.616;39.754;2023-04-03T10:28:56;99981.50;;;24.19;36.49
74637;BME280;63141;54.616;39.754;2023-04-03T10:42:05;99976.16;;;24.19;36.25
74637;BME280;63141;54.616;39.754;2023-04-03T10:46:00;99977.03;;;24.20;36.60
74637;BME280;63141;54.616;39.754;2023-04-03T10:49:36;99983.19;;;24.20;36.55
74637;BME280;63141;54.616;39.754;2023-04-03T10:53:06;99983.19;;;24.20;36.47
74637;BME280;63141;54.616;39.754;2023-04-03T10:56:31;99979.63;;;24.21;36.52
74637;BME280;63141;54.616;39.754;2023-04-03T11:03:45;99979.63;;;24.21;36.25
74637;BME280;63141;54.616;39.754;2023-04-03T11:07:21;99979.63;;;24.21;36.43
74637;BME280;63141;54.616;39.754;2023-04-03T11:10:43;99984.94;;;24.21;36.23
74637;BME280;63141;54.616;39.754;2023-04-03T11:20:42;99979.63;;;24.21;36.41
74637;BME280;63141;54.616;39.754;2023-04-03T11:23:51;99968.97;;;24.21;36.09
74637;BME280;63141;54.616;39.754;2023-04-03T11:27:02;99970.69;;;24.22;36.39
74637;BME280;63141;54.616;39.754;2023-04-03T11:30:23;99968.97;;;24.21;36.15
74637;BME280;63141;54.616;39.754;2023-04-03T11:40:38;99959.41;;;24.17;36.11
74637;BME280;63141;54.616;39.754;2023-04-03T11:43:58;99967.41;;;24.17;36.09
74637;BME280;63141;54.616;39.754;2023-04-03T11:47:04;99957.69;;;24.16;36.44
74637;BME280;63141;54.616;39.754;2023-04-03T11:53:43;99956.81;;;24.16;36.22
74637;BME280;63141;54.616;39.754;2023-04-03T11:56:51;99953.31;;;24.15;36.42
74637;BME280;63141;54.616;39.754;2023-04-03T12:04:22;99955.19;;;24.13;36.23
74637;BME280;63141;54.616;39.754;2023-04-03T12:07:34;99959.72;;;24.11;36.19
74637;BME280;63141;54.616;39.754;2023-04-03T12:10:35;99965.09;;;24.10;35.95
74637;BME280;63141;54.616;39.754;2023-04-03T12:17:23;99977.66;;;24.08;35.95
74637;BME280;63141;54.616;39.754;2023-04-03T12:23:58;99966.31;;;24.04;35.83
74637;BME280;63141;54.616;39.754;2023-04-03T12:30:27;99957.53;;;24.02;36.02
74637;BME280;63141;54.616;39.754;2023-04-03T12:45:22;99957.75;;;23.97;36.12
74637;BME280;63141;54.616;39.754;2023-04-03T12:52:02;99947.19;;;23.96;35.86
74637;BME280;63141;54.616;39.754;2023-04-03T12:55:21;99956.97;;;23.95;35.66
74637;BME280;63141;54.616;39.754;2023-04-03T12:58:31;99955.28;;;23.94;35.87
74637;BME280;63141;54.616;39.754;2023-04-03T13:01:34;99968.63;;;23.93;35.54
74637;BME280;63141;54.616;39.754;2023-04-03T13:04:47;99984.75;;;23.90;35.37
74637;BME280;63141;54.616;39.754;2023-04-03T13:08:04;99973.34;;;23.88;35.44
74637;BME280;63141;54.616;39.754;2023-04-03T13:11:10;99955.78;;;23.83;34.89
74637;BME280;63141;54.616;39.754;2023-04-03T13:14:36;99958.63;;;23.80;34.58
74637;BME280;63141;54.616;39.754;2023-04-03T13:17:44;99954.38;;;23.76;34.40
74637;BME280;63141;54.616;39.754;2023-04-03T13:24:20;99940.34;;;23.73;34.50
74637;BME280;63141;54.616;39.754;2023-04-03T13:27:29;99943.09;;;23.71;34.36
74637;BME280;63141;54.616;39.754;2023-04-03T13:30:54;99940.50;;;23.70;34.37
74637;BME280;63141;54.616;39.754;2023-04-03T13:34:06;99929.94;;;23.68;34.33
74637;BME280;63141;54.616;39.754;2023-04-03T13:37:31;99941.53;;;23.67;34.37
74637;BME280;63141;54.616;39.754;2023-04-03T13:40:56;99934.47;;;23.66;34.44
74637;BME280;63141;54.616;39.754;2023-04-03T13:47:40;99939.94;;;23.63;34.32
74637;BME280;63141;54.616;39.754;2023-04-03T13:51:00;99936.50;;;23.61;34.20
74637;BME280;63141;54.616;39.754;2023-04-03T13:54:17;99952.44;;;23.61;34.31
74637;BME280;63141;54.616;39.754;2023-04-03T13:57:31;99954.31;;;23.59;33.88
74637;BME280;63141;54.616;39.754;2023-04-03T14:04:31;99961.50;;;23.57;34.01
74637;BME280;63141;54.616;39.754;2023-04-03T14:07:33;99953.69;;;23.54;34.19
74637;BME280;63141;54.616;39.754;2023-04-03T14:10:44;99958.09;;;23.55;34.25
74637;BME280;63141;54.616;39.754;2023-04-03T14:14:31;99948.38;;;23.54;34.00
74637;BME280;63141;54.616;39.754;2023-04-03T14:17:54;99948.44;;;23.52;34.17
74637;BME280;63141;54.616;39.754;2023-04-03T14:20:56;99947.56;;;23.52;34.30
74637;BME280;63141;54.616;39.754;2023-04-03T14:24:18;99940.56;;;23.51;34.13
74637;BME280;63141;54.616;39.754;2023-04-03T14:27:51;99941.47;;;23.50;34.14
74637;BME280;63141;54.616;39.754;2023-04-03T14:30:57;99940.69;;;23.48;34.19
74637;BME280;63141;54.616;39.754;2023-04-03T14:34:11;99935.38;;;23.48;34.12
74637;BME280;63141;54.616;39.754;2023-04-03T14:37:25;99938.97;;;23.47;33.99
74637;BME280;63141;54.616;39.754;2023-04-03T14:40:40;99941.69;;;23.45;34.27
74637;BME280;63141;54.616;39.754;2023-04-03T14:43:59;99940.00;;;23.44;34.28
74637;BME280;63141;54.616;39.754;2023-04-03T14:47:15;99942.72;;;23.42;34.11
74637;BME280;63141;54.616;39.754;2023-04-03T14:50:38;99944.50;;;23.42;34.01
74637;BME280;63141;54.616;39.754;2023-04-03T14:54:02;99947.16;;;23.42;34.08
74637;BME280;63141;54.616;39.754;2023-04-03T14:57:23;99956.09;;;23.41;33.99
74637;BME280;63141;54.616;39.754;2023-04-03T15:00:25;99948.97;;;23.41;34.35
74637;BME280;63141;54.616;39.754;2023-04-03T15:03:44;99946.31;;;23.41;34.15
74637;BME280;63141;54.616;39.754;2023-04-03T15:06:54;99955.22;;;23.40;34.12
74637;BME280;63141;54.616;39.754;2023-04-03T15:13:43;99955.22;;;23.40;34.19
74637;BME280;63141;54.616;39.754;2023-04-03T15:17:00;99956.94;;;23.41;34.35
74637;BME280;63141;54.616;39.754;2023-04-03T15:20:16;99963.97;;;23.42;34.45
74637;BME280;63141;54.616;39.754;2023-04-03T15:23:23;99964.75;;;23.45;34.82
74637;BME280;63141;54.616;39.754;2023-04-03T15:26:46;99969.00;;;23.49;35.38
74637;BME280;63141;54.616;39.754;2023-04-03T15:30:03;99970.59;;;23.53;36.13
74637;BME280;63141;54.616;39.754;2023-04-03T15:33:16;99959.78;;;23.56;37.72
74637;BME280;63141;54.616;39.754;2023-04-03T15:36:29;99964.03;;;23.60;39.46
74637;BME280;63141;54.616;39.754;2023-04-03T15:39:36;99957.63;;;23.64;41.25
74637;BME280;63141;54.616;39.754;2023-04-03T15:42:40;99958.38;;;23.66;43.29
74637;BME280;63141;54.616;39.754;2023-04-03T15:45:59;99953.00;;;23.68;44.57
74637;BME280;63141;54.616;39.754;2023-04-03T15:49:12;99958.25;;;23.69;45.39
74637;BME280;63141;54.616;39.754;2023-04-03T15:52:23;99951.13;;;23.70;46.26
74637;BME280;63141;54.616;39.754;2023-04-03T15:55:37;99948.53;;;23.68;45.71
74637;BME280;63141;54.616;39.754;2023-04-03T15:58:47;99945.88;;;23.68;45.00
74637;BME280;63141;54.616;39.754;2023-04-03T16:01:59;99949.50;;;23.67;44.57
74637;BME280;63141;54.616;39.754;2023-04-03T16:05:19;99946.03;;;23.65;43.26
74637;BME280;63141;54.616;39.754;2023-04-03T16:08:23;99948.72;;;23.65;43.24
74637;BME280;63141;54.616;39.754;2023-04-03T16:11:47;99950.41;;;23.66;42.54
74637;BME280;63141;54.616;39.754;2023-04-03T16:15:15;99958.50;;;23.65;42.10
74637;BME280;63141;54.616;39.754;2023-04-03T16:18:29;99955.88;;;23.63;41.69
74637;BME280;63141;54.616;39.754;2023-04-03T16:21:42;99968.25;;;23.64;41.38
74637;BME280;63141;54.616;39.754;2023-04-03T16:24:44;99971.84;;;23.63;41.37
74637;BME280;63141;54.616;39.754;2023-04-03T16:28:17;99980.59;;;23.65;41.37
74637;BME280;63141;54.616;39.754;2023-04-03T16:31:40;99987.63;;;23.66;41.63
74637;BME280;63141;54.616;39.754;2023-04-03T16:34:44;99985.78;;;23.68;42.67
74637;BME280;63141;54.616;39.754;2023-04-03T16:37:58;99989.22;;;23.70;43.84
74637;BME280;63141;54.616;39.754;2023-04-03T16:41:08;100003.31;;;23.72;45.09
74637;BME280;63141;54.616;39.754;2023-04-03T16:44:10;99994.41;;;23.73;45.85
74637;BME280;63141;54.616;39.754;2023-04-03T16:47:28;99993.50;;;23.73;45.62
74637;BME280;63141;54.616;39.754;2023-04-03T16:50:56;99996.28;;;23.71;44.79
74637;BME280;63141;54.616;39.754;2023-04-03T16:54:04;100002.59;;;23.69;44.66
74637;BME280;63141;54.616;39.754;2023-04-03T16:57:26;99994.75;;;23.66;43.52
74637;BME280;63141;54.616;39.754;2023-04-03T17:00:58;99997.41;;;23.66;43.48
74637;BME280;63141;54.616;39.754;2023-04-03T17:04:20;100000.16;;;23.64;42.55
74637;BME280;63141;54.616;39.754;2023-04-03T17:07:39;99991.41;;;23.62;42.29
74637;BME280;63141;54.616;39.754;2023-04-03T17:10:50;99994.97;;;23.61;42.37
74637;BME280;63141;54.616;39.754;2023-04-03T17:14:01;99992.31;;;23.61;42.03
74637;BME280;63141;54.616;39.754;2023-04-03T17:17:23;99995.94;;;23.60;41.69
74637;BME280;63141;54.616;39.754;2023-04-03T17:20:46;99996.84;;;23.59;41.04
74637;BME280;63141;54.616;39.754;2023-04-03T17:24:16;99999.50;;;23.59;40.92
74637;BME280;63141;54.616;39.754;2023-04-03T17:27:33;99998.72;;;23.57;40.88
74637;BME280;63141;54.616;39.754;2023-04-03T17:30:47;99992.53;;;23.56;40.53
74637;BME280;63141;54.616;39.754;2023-04-03T17:34:15;99986.38;;;23.56;40.47
74637;BME280;63141;54.616;39.754;2023-04-03T17:37:48;99994.34;;;23.56;40.32
74637;BME280;63141;54.616;39.754;2023-04-03T17:41:24;99985.53;;;23.55;40.42
74637;BME280;63141;54.616;39.754;2023-04-03T17:44:34;99989.97;;;23.55;40.05
74637;BME280;63141;54.616;39.754;2023-04-03T17:48:18;99984.66;;;23.55;39.67
74637;BME280;63141;54.616;39.754;2023-04-03T17:51:28;99980.31;;;23.52;39.42
74637;BME280;63141;54.616;39.754;2023-04-03T17:54:39;99973.31;;;23.51;39.34
74637;BME280;63141;54.616;39.754;2023-04-03T17:57:44;99986.66;;;23.50;39.13
74637;BME280;63141;54.616;39.754;2023-04-03T18:00:51;99976.91;;;23.50;38.96
74637;BME280;63141;54.616;39.754;2023-04-03T18:04:06;99973.38;;;23.50;39.50
74637;BME280;63141;54.616;39.754;2023-04-03T18:07:27;99971.59;;;23.50;39.84
74637;BME280;63141;54.616;39.754;2023-04-03T18:10:52;99979.47;;;23.52;39.72
74637;BME280;63141;54.616;39.754;2023-04-03T18:14:04;99975.09;;;23.51;39.61
74637;BME280;63141;54.616;39.754;2023-04-03T18:17:15;99975.09;;;23.51;39.48
74637;BME280;63141;54.616;39.754;2023-04-03T18:20:27;99980.44;;;23.51;39.48
74637;BME280;63141;54.616;39.754;2023-04-03T18:24:06;99972.44;;;23.51;39.59
74637;BME280;63141;54.616;39.754;2023-04-03T18:27:38;99969.84;;;23.49;39.50